sensor_id;sensor_type;location;lat;lon;timestamp;P1;durP1;ratioP1;P2;durP2;ratioP2
46589;SDS011;32313;48.722;9.362;2024-03-06T00:01:04;62.80;;;42.83;;
46589;SDS011;32313;48.722;9.362;2024-03-06T00:03:31;72.50;;;46.10;;
46589;SDS011;32313;48.722;9.362;2024-03-06T00:05:57;63.20;;;43.63;;
46589;SDS011;32313;48.722;9.362;2024-03-06T00:08:23;76.77;;;46.83;;
46589;SDS011;32313;48.722;9.362;2024-03-06T00:10:48;108.70;;;54.00;;
46589;SDS011;32313;48.722;9.362;2024-03-06T00:13:14;77.33;;;47.57;;
46589;SDS011;32313;48.722;9.362;2024-03-06T00:15:40;112.93;;;55.00;;
46589;SDS011;32313;48.722;9.362;2024-03-06T00:18:06;95.10;;;51.60;;
46589;SDS011;32313;48.722;9.362;2024-03-06T00:20:31;81.60;;;48.43;;
46589;SDS011;32313;48.722;9.362;2024-03-06T00:22:57;108.33;;;50.90;;
46589;SDS011;32313;48.722;9.362;2024-03-06T00:25:24;84.93;;;51.17;;
46589;SDS011;32313;48.722;9.362;2024-03-06T00:27:50;78.07;;;50.47;;
46589;SDS011;32313;48.722;9.362;2024-03-06T00:30:16;58.70;;;38.77;;
46589;SDS011;32313;48.722;9.362;2024-03-06T00:32:42;66.87;;;46.03;;
46589;SDS011;32313;48.722;9.362;2024-03-06T00:35:08;59.07;;;41.57;;
46589;SDS011;32313;48.722;9.362;2024-03-06T00:37:34;60.73;;;41.83;;
46589;SDS011;32313;48.722;9.362;2024-03-06T00:39:59;63.57;;;44.53;;
46589;SDS011;32313;48.722;9.362;2024-03-06T00:42:25;67.83;;;44.50;;
46589;SDS011;32313;48.722;9.362;2024-03-06T00:44:51;61.50;;;42.63;;
46589;SDS011;32313;48.722;9.362;2024-03-06T00:47:17;65.97;;;43.33;;
46589;SDS011;32313;48.722;9.362;2024-03-06T00:49:42;77.93;;;47.50;;
46589;SDS011;32313;48.722;9.362;2024-03-06T00:52:08;65.70;;;41.90;;
46589;SDS011;32313;48.722;9.362;2024-03-06T00:54:34;89.07;;;48.47;;
46589;SDS011;32313;48.722;9.362;2024-03-06T00:57:00;70.60;;;45.03;;
46589;SDS011;32313;48.722;9.362;2024-03-06T00:59:27;69.83;;;44.20;;
46589;SDS011;32313;48.722;9.362;2024-03-06T01:01:53;70.90;;;43.77;;
46589;SDS011;32313;48.722;9.362;2024-03-06T01:04:21;84.17;;;48.83;;
46589;SDS011;32313;48.722;9.362;2024-03-06T01:06:47;75.00;;;46.83;;
46589;SDS011;32313;48.722;9.362;2024-03-06T01:09:13;71.93;;;43.33;;
46589;SDS011;32313;48.722;9.362;2024-03-06T01:11:39;70.53;;;43.87;;
46589;SDS011;32313;48.722;9.362;2024-03-06T01:14:04;75.70;;;47.50;;
46589;SDS011;32313;48.722;9.362;2024-03-06T01:16:30;64.70;;;43.93;;
46589;SDS011;32313;48.722;9.362;2024-03-06T01:18:56;71.27;;;45.10;;
46589;SDS011;32313;48.722;9.362;2024-03-06T01:21:21;69.53;;;44.47;;
46589;SDS011;32313;48.722;9.362;2024-03-06T01:23:47;62.57;;;42.13;;
46589;SDS011;32313;48.722;9.362;2024-03-06T01:26:13;73.07;;;45.87;;
46589;SDS011;32313;48.722;9.362;2024-03-06T01:28:39;71.23;;;46.50;;
46589;SDS011;32313;48.722;9.362;2024-03-06T01:31:04;58.63;;;40.97;;
46589;SDS011;32313;48.722;9.362;2024-03-06T01:33:31;72.37;;;46.20;;
46589;SDS011;32313;48.722;9.362;2024-03-06T01:35:57;79.10;;;47.47;;
46589;SDS011;32313;48.722;9.362;2024-03-06T01:38:22;88.00;;;50.43;;
46589;SDS011;32313;48.722;9.362;2024-03-06T01:40:48;86.30;;;48.23;;
46589;SDS011;32313;48.722;9.362;2024-03-06T01:43:18;74.80;;;46.17;;
46589;SDS011;32313;48.722;9.362;2024-03-06T01:45:48;58.93;;;41.17;;
46589;SDS011;32313;48.722;9.362;2024-03-06T01:48:15;57.67;;;39.63;;
46589;SDS011;32313;48.722;9.362;2024-03-06T01:50:42;62.83;;;42.77;;
46589;SDS011;32313;48.722;9.362;2024-03-06T01:53:08;53.87;;;37.63;;
46589;SDS011;32313;48.722;9.362;2024-03-06T01:55:35;48.77;;;38.43;;
46589;SDS011;32313;48.722;9.362;2024-03-06T01:58:01;53.60;;;40.00;;
46589;SDS011;32313;48.722;9.362;2024-03-06T02:00:27;54.97;;;40.50;;
46589;SDS011;32313;48.722;9.362;2024-03-06T02:02:53;53.17;;;41.13;;
46589;SDS011;32313;48.722;9.362;2024-03-06T02:05:20;55.10;;;40.27;;
46589;SDS011;32313;48.722;9.362;2024-03-06T02:07:47;53.53;;;40.33;;
46589;SDS011;32313;48.722;9.362;2024-03-06T02:10:14;55.60;;;41.13;;
46589;SDS011;32313;48.722;9.362;2024-03-06T02:12:39;41.70;;;33.43;;
46589;SDS011;32313;48.722;9.362;2024-03-06T02:15:06;45.00;;;35.13;;
46589;SDS011;32313;48.722;9.362;2024-03-06T02:17:33;45.50;;;34.73;;
46589;SDS011;32313;48.722;9.362;2024-03-06T02:19:59;44.17;;;36.33;;
46589;SDS011;32313;48.722;9.362;2024-03-06T02:22:25;45.03;;;37.93;;
46589;SDS011;32313;48.722;9.362;2024-03-06T02:24:51;41.43;;;35.53;;
46589;SDS011;32313;48.722;9.362;2024-03-06T02:27:16;47.80;;;35.93;;
46589;SDS011;32313;48.722;9.362;2024-03-06T02:29:43;42.93;;;35.83;;
46589;SDS011;32313;48.722;9.362;2024-03-06T02:32:08;41.57;;;33.67;;
46589;SDS011;32313;48.722;9.362;2024-03-06T02:34:37;46.87;;;36.20;;
46589;SDS011;32313;48.722;9.362;2024-03-06T02:37:03;43.73;;;35.03;;
46589;SDS011;32313;48.722;9.362;2024-03-06T02:39:28;42.40;;;34.37;;
46589;SDS011;32313;48.722;9.362;2024-03-06T02:41:54;40.17;;;35.40;;
46589;SDS011;32313;48.722;9.362;2024-03-06T02:44:20;39.40;;;33.37;;
46589;SDS011;32313;48.722;9.362;2024-03-06T02:46:46;44.60;;;36.27;;
46589;SDS011;32313;48.722;9.362;2024-03-06T02:49:13;43.43;;;34.77;;
46589;SDS011;32313;48.722;9.362;2024-03-06T02:51:40;43.57;;;35.67;;
46589;SDS011;32313;48.722;9.362;2024-03-06T02:54:05;42.73;;;36.33;;
46589;SDS011;32313;48.722;9.362;2024-03-06T02:56:31;38.03;;;33.17;;
46589;SDS011;32313;48.722;9.362;2024-03-06T02:58:57;52.60;;;39.73;;
46589;SDS011;32313;48.722;9.362;2024-03-06T03:01:22;44.80;;;35.87;;
46589;SDS011;32313;48.722;9.362;2024-03-06T03:03:48;44.87;;;35.97;;
46589;SDS011;32313;48.722;9.362;2024-03-06T03:06:16;47.57;;;37.53;;
46589;SDS011;32313;48.722;9.362;2024-03-06T03:08:42;41.90;;;34.57;;
46589;SDS011;32313;48.722;9.362;2024-03-06T03:11:07;39.50;;;33.87;;
46589;SDS011;32313;48.722;9.362;2024-03-06T03:13:33;47.77;;;38.37;;
46589;SDS011;32313;48.722;9.362;2024-03-06T03:15:59;40.37;;;34.00;;
46589;SDS011;32313;48.722;9.362;2024-03-06T03:18:24;41.60;;;34.00;;
46589;SDS011;32313;48.722;9.362;2024-03-06T03:20:50;41.90;;;33.83;;
46589;SDS011;32313;48.722;9.362;2024-03-06T03:27:03;41.23;;;33.27;;
46589;SDS011;32313;48.722;9.362;2024-03-06T03:29:29;39.83;;;33.00;;
46589;SDS011;32313;48.722;9.362;2024-03-06T03:31:55;39.07;;;33.60;;
46589;SDS011;32313;48.722;9.362;2024-03-06T03:34:20;38.97;;;33.40;;
46589;SDS011;32313;48.722;9.362;2024-03-06T03:36:47;36.33;;;29.23;;
46589;SDS011;32313;48.722;9.362;2024-03-06T03:39:14;36.83;;;31.53;;
46589;SDS011;32313;48.722;9.362;2024-03-06T03:41:43;36.13;;;32.23;;
46589;SDS011;32313;48.722;9.362;2024-03-06T03:44:13;47.00;;;35.53;;
46589;SDS011;32313;48.722;9.362;2024-03-06T03:46:40;43.93;;;35.17;;
46589;SDS011;32313;48.722;9.362;2024-03-06T03:49:06;48.43;;;35.70;;
46589;SDS011;32313;48.722;9.362;2024-03-06T03:51:31;47.87;;;36.20;;
46589;SDS011;32313;48.722;9.362;2024-03-06T03:53:57;55.30;;;39.47;;
46589;SDS011;32313;48.722;9.362;2024-03-06T03:56:23;49.83;;;42.23;;
46589;SDS011;32313;48.722;9.362;2024-03-06T03:58:49;56.27;;;40.40;;
46589;SDS011;32313;48.722;9.362;2024-03-06T04:01:14;75.00;;;45.00;;
46589;SDS011;32313;48.722;9.362;2024-03-06T04:03:40;94.47;;;49.13;;
46589;SDS011;32313;48.722;9.362;2024-03-06T04:06:07;66.73;;;43.10;;
46589;SDS011;32313;48.722;9.362;2024-03-06T04:08:33;75.50;;;44.83;;
46589;SDS011;32313;48.722;9.362;2024-03-06T04:10:59;67.63;;;42.70;;
46589;SDS011;32313;48.722;9.362;2024-03-06T04:13:25;53.90;;;39.50;;
46589;SDS011;32313;48.722;9.362;2024-03-06T04:15:51;54.50;;;40.37;;
46589;SDS011;32313;48.722;9.362;2024-03-06T04:18:17;50.63;;;38.43;;
46589;SDS011;32313;48.722;9.362;2024-03-06T04:20:42;46.50;;;35.83;;
46589;SDS011;32313;48.722;9.362;2024-03-06T04:23:08;45.60;;;35.63;;
46589;SDS011;32313;48.722;9.362;2024-03-06T04:25:35;43.47;;;35.63;;
46589;SDS011;32313;48.722;9.362;2024-03-06T04:28:02;44.53;;;36.03;;
46589;SDS011;32313;48.722;9.362;2024-03-06T04:30:28;44.53;;;36.27;;
46589;SDS011;32313;48.722;9.362;2024-03-06T04:32:53;44.07;;;35.53;;
46589;SDS011;32313;48.722;9.362;2024-03-06T04:35:19;41.97;;;33.73;;
46589;SDS011;32313;48.722;9.362;2024-03-06T04:37:44;47.93;;;36.63;;
46589;SDS011;32313;48.722;9.362;2024-03-06T04:40:10;46.20;;;34.00;;
46589;SDS011;32313;48.722;9.362;2024-03-06T04:42:36;45.43;;;35.57;;
46589;SDS011;32313;48.722;9.362;2024-03-06T04:45:03;42.80;;;34.77;;
46589;SDS011;32313;48.722;9.362;2024-03-06T04:47:29;42.73;;;34.30;;
46589;SDS011;32313;48.722;9.362;2024-03-06T04:49:55;41.03;;;34.20;;
46589;SDS011;32313;48.722;9.362;2024-03-06T04:52:20;40.23;;;34.43;;
46589;SDS011;32313;48.722;9.362;2024-03-06T04:54:46;44.57;;;36.60;;
46589;SDS011;32313;48.722;9.362;2024-03-06T05:00:31;37.93;;;31.50;;
46589;SDS011;32313;48.722;9.362;2024-03-06T05:02:57;41.67;;;32.70;;
46589;SDS011;32313;48.722;9.362;2024-03-06T05:05:22;38.67;;;32.70;;
46589;SDS011;32313;48.722;9.362;2024-03-06T05:07:49;40.10;;;34.40;;
46589;SDS011;32313;48.722;9.362;2024-03-06T05:10:17;42.50;;;33.93;;
46589;SDS011;32313;48.722;9.362;2024-03-06T05:12:42;39.17;;;33.17;;
46589;SDS011;32313;48.722;9.362;2024-03-06T05:15:08;41.20;;;34.97;;
46589;SDS011;32313;48.722;9.362;2024-03-06T05:17:35;43.43;;;34.60;;
46589;SDS011;32313;48.722;9.362;2024-03-06T05:20:00;39.37;;;32.40;;
46589;SDS011;32313;48.722;9.362;2024-03-06T05:22:29;39.20;;;33.50;;
46589;SDS011;32313;48.722;9.362;2024-03-06T05:24:55;42.23;;;35.30;;
46589;SDS011;32313;48.722;9.362;2024-03-06T05:27:21;42.40;;;35.67;;
46589;SDS011;32313;48.722;9.362;2024-03-06T05:29:47;44.83;;;35.07;;
46589;SDS011;32313;48.722;9.362;2024-03-06T05:32:13;42.30;;;34.03;;
46589;SDS011;32313;48.722;9.362;2024-03-06T05:34:38;44.30;;;35.30;;
46589;SDS011;32313;48.722;9.362;2024-03-06T05:37:04;40.30;;;33.63;;
46589;SDS011;32313;48.722;9.362;2024-03-06T05:39:31;46.30;;;36.77;;
46589;SDS011;32313;48.722;9.362;2024-03-06T05:42:00;42.63;;;33.97;;
46589;SDS011;32313;48.722;9.362;2024-03-06T05:44:30;40.03;;;32.73;;
46589;SDS011;32313;48.722;9.362;2024-03-06T05:47:01;39.27;;;31.73;;
46589;SDS011;32313;48.722;9.362;2024-03-06T05:49:28;39.10;;;31.10;;
46589;SDS011;32313;48.722;9.362;2024-03-06T05:51:53;40.10;;;32.77;;
46589;SDS011;32313;48.722;9.362;2024-03-06T05:54:22;39.83;;;33.77;;
46589;SDS011;32313;48.722;9.362;2024-03-06T05:56:48;43.83;;;35.30;;
46589;SDS011;32313;48.722;9.362;2024-03-06T05:59:16;46.17;;;35.23;;
46589;SDS011;32313;48.722;9.362;2024-03-06T06:01:45;47.67;;;37.07;;
46589;SDS011;32313;48.722;9.362;2024-03-06T06:04:14;35.60;;;31.77;;
46589;SDS011;32313;48.722;9.362;2024-03-06T06:06:41;36.73;;;30.73;;
46589;SDS011;32313;48.722;9.362;2024-03-06T06:09:07;43.63;;;34.97;;
46589;SDS011;32313;48.722;9.362;2024-03-06T06:11:40;43.20;;;34.90;;
46589;SDS011;32313;48.722;9.362;2024-03-06T06:14:05;47.93;;;38.37;;
46589;SDS011;32313;48.722;9.362;2024-03-06T06:16:38;41.83;;;33.33;;
46589;SDS011;32313;48.722;9.362;2024-03-06T06:19:06;44.43;;;36.87;;
46589;SDS011;32313;48.722;9.362;2024-03-06T06:21:32;42.47;;;35.93;;
46589;SDS011;32313;48.722;9.362;2024-03-06T06:23:58;48.00;;;36.00;;
46589;SDS011;32313;48.722;9.362;2024-03-06T06:26:24;45.10;;;38.93;;
46589;SDS011;32313;48.722;9.362;2024-03-06T06:28:49;42.47;;;34.83;;
46589;SDS011;32313;48.722;9.362;2024-03-06T06:31:15;41.70;;;37.07;;
46589;SDS011;32313;48.722;9.362;2024-03-06T06:33:41;37.10;;;31.43;;
46589;SDS011;32313;48.722;9.362;2024-03-06T06:36:06;38.03;;;29.93;;
46589;SDS011;32313;48.722;9.362;2024-03-06T06:38:32;36.63;;;28.67;;
46589;SDS011;32313;48.722;9.362;2024-03-06T06:40:58;34.73;;;25.97;;
46589;SDS011;32313;48.722;9.362;2024-03-06T06:43:24;32.57;;;25.67;;
46589;SDS011;32313;48.722;9.362;2024-03-06T06:45:52;34.77;;;24.10;;
46589;SDS011;32313;48.722;9.362;2024-03-06T06:48:17;31.27;;;24.13;;
46589;SDS011;32313;48.722;9.362;2024-03-06T06:50:43;28.17;;;23.27;;
46589;SDS011;32313;48.722;9.362;2024-03-06T06:53:09;29.17;;;23.23;;
46589;SDS011;32313;48.722;9.362;2024-03-06T06:55:35;32.00;;;24.13;;
46589;SDS011;32313;48.722;9.362;2024-03-06T06:58:01;29.20;;;23.67;;
46589;SDS011;32313;48.722;9.362;2024-03-06T07:00:27;26.40;;;23.10;;
46589;SDS011;32313;48.722;9.362;2024-03-06T07:02:53;29.83;;;23.37;;
46589;SDS011;32313;48.722;9.362;2024-03-06T07:05:19;27.33;;;23.13;;
46589;SDS011;32313;48.722;9.362;2024-03-06T07:07:45;27.67;;;23.20;;
46589;SDS011;32313;48.722;9.362;2024-03-06T07:10:11;25.23;;;22.00;;
46589;SDS011;32313;48.722;9.362;2024-03-06T07:12:37;29.30;;;24.53;;
46589;SDS011;32313;48.722;9.362;2024-03-06T07:15:02;23.53;;;20.37;;
46589;SDS011;32313;48.722;9.362;2024-03-06T07:17:28;22.80;;;20.30;;
46589;SDS011;32313;48.722;9.362;2024-03-06T07:19:54;28.93;;;22.50;;
46589;SDS011;32313;48.722;9.362;2024-03-06T07:22:21;27.07;;;21.90;;
46589;SDS011;32313;48.722;9.362;2024-03-06T07:24:46;23.10;;;20.60;;
46589;SDS011;32313;48.722;9.362;2024-03-06T07:27:12;26.40;;;20.77;;
46589;SDS011;32313;48.722;9.362;2024-03-06T07:29:38;25.57;;;21.27;;
46589;SDS011;32313;48.722;9.362;2024-03-06T07:32:03;22.90;;;20.47;;
46589;SDS011;32313;48.722;9.362;2024-03-06T07:34:32;23.53;;;20.57;;
46589;SDS011;32313;48.722;9.362;2024-03-06T07:36:58;23.47;;;20.87;;
46589;SDS011;32313;48.722;9.362;2024-03-06T07:39:27;24.13;;;21.70;;
46589;SDS011;32313;48.722;9.362;2024-03-06T07:41:54;26.73;;;23.03;;
46589;SDS011;32313;48.722;9.362;2024-03-06T07:44:20;23.97;;;21.43;;
46589;SDS011;32313;48.722;9.362;2024-03-06T07:46:45;23.43;;;21.00;;
46589;SDS011;32313;48.722;9.362;2024-03-06T07:49:11;26.47;;;21.27;;
46589;SDS011;32313;48.722;9.362;2024-03-06T07:51:37;21.77;;;19.70;;
46589;SDS011;32313;48.722;9.362;2024-03-06T07:54:03;24.93;;;22.37;;
46589;SDS011;32313;48.722;9.362;2024-03-06T07:56:34;24.03;;;21.57;;
46589;SDS011;32313;48.722;9.362;2024-03-06T07:59:03;23.07;;;20.73;;
46589;SDS011;32313;48.722;9.362;2024-03-06T08:01:30;22.67;;;20.33;;
46589;SDS011;32313;48.722;9.362;2024-03-06T08:03:58;22.90;;;20.50;;
46589;SDS011;32313;48.722;9.362;2024-03-06T08:06:24;22.27;;;20.17;;
46589;SDS011;32313;48.722;9.362;2024-03-06T08:08:50;21.73;;;19.43;;
46589;SDS011;32313;48.722;9.362;2024-03-06T08:11:17;23.47;;;21.13;;
46589;SDS011;32313;48.722;9.362;2024-03-06T08:13:43;23.60;;;20.60;;
46589;SDS011;32313;48.722;9.362;2024-03-06T08:16:08;23.00;;;20.77;;
46589;SDS011;32313;48.722;9.362;2024-03-06T08:18:35;22.93;;;20.47;;
46589;SDS011;32313;48.722;9.362;2024-03-06T08:21:03;24.63;;;21.17;;
46589;SDS011;32313;48.722;9.362;2024-03-06T08:23:31;23.67;;;21.27;;
46589;SDS011;32313;48.722;9.362;2024-03-06T08:25:58;22.23;;;20.13;;
46589;SDS011;32313;48.722;9.362;2024-03-06T08:28:25;22.63;;;20.33;;
46589;SDS011;32313;48.722;9.362;2024-03-06T08:30:51;22.93;;;20.73;;
46589;SDS011;32313;48.722;9.362;2024-03-06T08:33:17;24.53;;;22.17;;
46589;SDS011;32313;48.722;9.362;2024-03-06T08:35:44;22.60;;;20.30;;
46589;SDS011;32313;48.722;9.362;2024-03-06T08:38:10;24.03;;;21.57;;
46589;SDS011;32313;48.722;9.362;2024-03-06T08:40:35;22.03;;;19.67;;
46589;SDS011;32313;48.722;9.362;2024-03-06T08:43:02;25.67;;;22.10;;
46589;SDS011;32313;48.722;9.362;2024-03-06T08:45:28;25.37;;;21.43;;
46589;SDS011;32313;48.722;9.362;2024-03-06T08:47:54;22.83;;;20.47;;
46589;SDS011;32313;48.722;9.362;2024-03-06T08:50:19;23.10;;;20.80;;
46589;SDS011;32313;48.722;9.362;2024-03-06T08:52:46;22.50;;;20.30;;
46589;SDS011;32313;48.722;9.362;2024-03-06T08:55:13;22.93;;;20.53;;
46589;SDS011;32313;48.722;9.362;2024-03-06T08:57:39;23.73;;;21.43;;
46589;SDS011;32313;48.722;9.362;2024-03-06T09:00:06;22.97;;;20.57;;
46589;SDS011;32313;48.722;9.362;2024-03-06T09:02:36;23.37;;;21.03;;
46589;SDS011;32313;48.722;9.362;2024-03-06T09:05:09;25.03;;;22.33;;
46589;SDS011;32313;48.722;9.362;2024-03-06T09:07:38;22.00;;;19.73;;
46589;SDS011;32313;48.722;9.362;2024-03-06T09:10:06;26.33;;;20.47;;
46589;SDS011;32313;48.722;9.362;2024-03-06T09:12:32;23.87;;;20.33;;
46589;SDS011;32313;48.722;9.362;2024-03-06T09:14:57;21.67;;;19.57;;
46589;SDS011;32313;48.722;9.362;2024-03-06T09:17:25;22.07;;;19.70;;
46589;SDS011;32313;48.722;9.362;2024-03-06T09:19:51;21.23;;;19.00;;
46589;SDS011;32313;48.722;9.362;2024-03-06T09:22:17;21.20;;;19.03;;
46589;SDS011;32313;48.722;9.362;2024-03-06T09:24:43;21.90;;;19.73;;
46589;SDS011;32313;48.722;9.362;2024-03-06T09:27:08;20.03;;;17.87;;
46589;SDS011;32313;48.722;9.362;2024-03-06T09:29:34;19.93;;;17.77;;
46589;SDS011;32313;48.722;9.362;2024-03-06T09:32:00;19.80;;;17.83;;
46589;SDS011;32313;48.722;9.362;2024-03-06T09:34:25;20.67;;;18.57;;
46589;SDS011;32313;48.722;9.362;2024-03-06T09:36:51;19.80;;;18.00;;
46589;SDS011;32313;48.722;9.362;2024-03-06T09:39:18;20.30;;;18.20;;
46589;SDS011;32313;48.722;9.362;2024-03-06T09:41:52;22.30;;;20.00;;
46589;SDS011;32313;48.722;9.362;2024-03-06T09:44:18;21.60;;;18.80;;
46589;SDS011;32313;48.722;9.362;2024-03-06T09:46:46;20.57;;;18.03;;
46589;SDS011;32313;48.722;9.362;2024-03-06T09:49:17;21.37;;;18.60;;
46589;SDS011;32313;48.722;9.362;2024-03-06T09:51:44;19.83;;;17.83;;
46589;SDS011;32313;48.722;9.362;2024-03-06T09:54:12;20.43;;;18.33;;
46589;SDS011;32313;48.722;9.362;2024-03-06T09:56:42;20.70;;;18.70;;
46589;SDS011;32313;48.722;9.362;2024-03-06T09:59:11;22.60;;;20.30;;
46589;SDS011;32313;48.722;9.362;2024-03-06T10:01:39;20.47;;;18.33;;
46589;SDS011;32313;48.722;9.362;2024-03-06T10:04:18;22.93;;;19.70;;
46589;SDS011;32313;48.722;9.362;2024-03-06T10:06:55;23.73;;;21.40;;
46589;SDS011;32313;48.722;9.362;2024-03-06T10:09:22;21.60;;;19.47;;
46589;SDS011;32313;48.722;9.362;2024-03-06T10:11:50;24.83;;;22.17;;
46589;SDS011;32313;48.722;9.362;2024-03-06T10:14:18;25.30;;;22.77;;
46589;SDS011;32313;48.722;9.362;2024-03-06T10:16:51;26.83;;;24.23;;
46589;SDS011;32313;48.722;9.362;2024-03-06T10:19:18;25.73;;;23.03;;
46589;SDS011;32313;48.722;9.362;2024-03-06T10:21:47;27.77;;;24.93;;
46589;SDS011;32313;48.722;9.362;2024-03-06T10:26:54;27.20;;;24.27;;
46589;SDS011;32313;48.722;9.362;2024-03-06T10:29:22;28.60;;;24.50;;
46589;SDS011;32313;48.722;9.362;2024-03-06T10:34:25;34.03;;;28.00;;
46589;SDS011;32313;48.722;9.362;2024-03-06T10:36:58;32.53;;;27.17;;
46589;SDS011;32313;48.722;9.362;2024-03-06T10:39:30;32.73;;;27.70;;
46589;SDS011;32313;48.722;9.362;2024-03-06T10:41:59;27.90;;;25.10;;
46589;SDS011;32313;48.722;9.362;2024-03-06T10:44:27;28.67;;;25.60;;
46589;SDS011;32313;48.722;9.362;2024-03-06T10:47:04;28.40;;;25.50;;
46589;SDS011;32313;48.722;9.362;2024-03-06T10:49:32;28.90;;;25.80;;
46589;SDS011;32313;48.722;9.362;2024-03-06T10:54:29;27.70;;;24.63;;
46589;SDS011;32313;48.722;9.362;2024-03-06T10:56:55;28.20;;;25.27;;
46589;SDS011;32313;48.722;9.362;2024-03-06T10:59:24;26.43;;;23.73;;
46589;SDS011;32313;48.722;9.362;2024-03-06T11:01:53;25.63;;;23.03;;
46589;SDS011;32313;48.722;9.362;2024-03-06T11:04:26;27.00;;;24.17;;
46589;SDS011;32313;48.722;9.362;2024-03-06T11:06:54;27.30;;;24.57;;
46589;SDS011;32313;48.722;9.362;2024-03-06T11:09:21;28.67;;;25.63;;
46589;SDS011;32313;48.722;9.362;2024-03-06T11:11:47;31.63;;;26.07;;
46589;SDS011;32313;48.722;9.362;2024-03-06T11:14:17;28.27;;;24.40;;
46589;SDS011;32313;48.722;9.362;2024-03-06T11:19:23;28.67;;;25.60;;
46589;SDS011;32313;48.722;9.362;2024-03-06T11:21:49;31.20;;;27.80;;
46589;SDS011;32313;48.722;9.362;2024-03-06T11:24:19;28.80;;;25.50;;
46589;SDS011;32313;48.722;9.362;2024-03-06T11:26:55;30.43;;;26.70;;
46589;SDS011;32313;48.722;9.362;2024-03-06T11:29:23;28.60;;;25.53;;
46589;SDS011;32313;48.722;9.362;2024-03-06T11:32:00;28.10;;;24.80;;
46589;SDS011;32313;48.722;9.362;2024-03-06T11:34:36;27.00;;;24.10;;
46589;SDS011;32313;48.722;9.362;2024-03-06T11:37:03;27.73;;;24.47;;
46589;SDS011;32313;48.722;9.362;2024-03-06T11:39:35;27.23;;;24.47;;
46589;SDS011;32313;48.722;9.362;2024-03-06T11:42:02;26.33;;;23.57;;
46589;SDS011;32313;48.722;9.362;2024-03-06T11:44:52;27.10;;;24.30;;
46589;SDS011;32313;48.722;9.362;2024-03-06T11:47:20;28.60;;;25.60;;
46589;SDS011;32313;48.722;9.362;2024-03-06T11:49:45;27.53;;;24.67;;
46589;SDS011;32313;48.722;9.362;2024-03-06T11:52:11;27.00;;;24.27;;
46589;SDS011;32313;48.722;9.362;2024-03-06T11:54:37;28.23;;;25.23;;
46589;SDS011;32313;48.722;9.362;2024-03-06T11:57:04;29.00;;;25.80;;
46589;SDS011;32313;48.722;9.362;2024-03-06T11:59:35;30.10;;;26.57;;
46589;SDS011;32313;48.722;9.362;2024-03-06T12:02:04;28.40;;;25.03;;
46589;SDS011;32313;48.722;9.362;2024-03-06T12:04:30;26.57;;;23.53;;
46589;SDS011;32313;48.722;9.362;2024-03-06T12:06:58;28.60;;;25.50;;
46589;SDS011;32313;48.722;9.362;2024-03-06T12:09:25;28.63;;;25.57;;
46589;SDS011;32313;48.722;9.362;2024-03-06T12:11:51;26.23;;;23.07;;
46589;SDS011;32313;48.722;9.362;2024-03-06T12:14:18;28.90;;;25.63;;
46589;SDS011;32313;48.722;9.362;2024-03-06T12:16:55;27.90;;;24.60;;
46589;SDS011;32313;48.722;9.362;2024-03-06T12:19:25;24.50;;;22.10;;
46589;SDS011;32313;48.722;9.362;2024-03-06T12:21:53;26.00;;;23.20;;
46589;SDS011;32313;48.722;9.362;2024-03-06T12:24:19;27.57;;;24.60;;
46589;SDS011;32313;48.722;9.362;2024-03-06T12:26:44;30.23;;;26.40;;
46589;SDS011;32313;48.722;9.362;2024-03-06T12:29:16;29.00;;;25.97;;
46589;SDS011;32313;48.722;9.362;2024-03-06T12:31:42;28.43;;;25.50;;
46589;SDS011;32313;48.722;9.362;2024-03-06T12:34:13;30.83;;;27.57;;
46589;SDS011;32313;48.722;9.362;2024-03-06T12:36:39;31.63;;;28.10;;
46589;SDS011;32313;48.722;9.362;2024-03-06T12:39:05;32.23;;;27.87;;
46589;SDS011;32313;48.722;9.362;2024-03-06T12:41:38;26.63;;;23.73;;
46589;SDS011;32313;48.722;9.362;2024-03-06T12:44:20;31.53;;;28.23;;
46589;SDS011;32313;48.722;9.362;2024-03-06T12:46:47;30.17;;;26.50;;
46589;SDS011;32313;48.722;9.362;2024-03-06T12:49:13;33.63;;;29.30;;
46589;SDS011;32313;48.722;9.362;2024-03-06T12:51:40;31.47;;;28.17;;
46589;SDS011;32313;48.722;9.362;2024-03-06T12:54:05;30.90;;;26.63;;
46589;SDS011;32313;48.722;9.362;2024-03-06T12:56:33;33.47;;;28.43;;
46589;SDS011;32313;48.722;9.362;2024-03-06T12:58:59;31.80;;;28.40;;
46589;SDS011;32313;48.722;9.362;2024-03-06T13:01:25;30.43;;;27.20;;
46589;SDS011;32313;48.722;9.362;2024-03-06T13:03:50;32.17;;;28.77;;
46589;SDS011;32313;48.722;9.362;2024-03-06T13:06:16;29.43;;;26.30;;
46589;SDS011;32313;48.722;9.362;2024-03-06T13:08:42;31.83;;;28.33;;
46589;SDS011;32313;48.722;9.362;2024-03-06T13:11:09;29.83;;;25.70;;
46589;SDS011;32313;48.722;9.362;2024-03-06T13:13:35;32.60;;;27.27;;
46589;SDS011;32313;48.722;9.362;2024-03-06T13:16:02;33.93;;;28.70;;
46589;SDS011;32313;48.722;9.362;2024-03-06T13:18:28;32.03;;;28.03;;
46589;SDS011;32313;48.722;9.362;2024-03-06T13:20:54;32.10;;;28.70;;
46589;SDS011;32313;48.722;9.362;2024-03-06T13:23:20;33.50;;;28.13;;
46589;SDS011;32313;48.722;9.362;2024-03-06T13:25:47;35.93;;;28.50;;
46589;SDS011;32313;48.722;9.362;2024-03-06T13:28:13;34.53;;;29.97;;
46589;SDS011;32313;48.722;9.362;2024-03-06T13:30:38;33.50;;;29.80;;
46589;SDS011;32313;48.722;9.362;2024-03-06T13:33:05;32.70;;;29.20;;
46589;SDS011;32313;48.722;9.362;2024-03-06T13:35:30;33.87;;;28.87;;
46589;SDS011;32313;48.722;9.362;2024-03-06T13:37:56;34.43;;;30.60;;
46589;SDS011;32313;48.722;9.362;2024-03-06T13:40:22;37.27;;;30.20;;
46589;SDS011;32313;48.722;9.362;2024-03-06T13:42:48;33.87;;;29.70;;
46589;SDS011;32313;48.722;9.362;2024-03-06T13:45:14;36.83;;;30.17;;
46589;SDS011;32313;48.722;9.362;2024-03-06T13:47:41;38.33;;;31.07;;
46589;SDS011;32313;48.722;9.362;2024-03-06T13:50:08;32.63;;;28.23;;
46589;SDS011;32313;48.722;9.362;2024-03-06T13:52:35;37.97;;;31.17;;
46589;SDS011;32313;48.722;9.362;2024-03-06T13:55:01;37.30;;;30.97;;
46589;SDS011;32313;48.722;9.362;2024-03-06T13:57:32;40.37;;;32.70;;
46589;SDS011;32313;48.722;9.362;2024-03-06T14:00:03;35.50;;;30.97;;
46589;SDS011;32313;48.722;9.362;2024-03-06T14:02:42;41.30;;;33.37;;
46589;SDS011;32313;48.722;9.362;2024-03-06T14:05:12;40.27;;;33.23;;
46589;SDS011;32313;48.722;9.362;2024-03-06T14:07:42;40.53;;;32.90;;
46589;SDS011;32313;48.722;9.362;2024-03-06T14:10:07;36.07;;;30.27;;
46589;SDS011;32313;48.722;9.362;2024-03-06T14:12:36;38.73;;;32.00;;
46589;SDS011;32313;48.722;9.362;2024-03-06T14:15:03;38.20;;;33.03;;
46589;SDS011;32313;48.722;9.362;2024-03-06T14:17:39;42.93;;;34.40;;
46589;SDS011;32313;48.722;9.362;2024-03-06T14:20:05;39.77;;;32.30;;
46589;SDS011;32313;48.722;9.362;2024-03-06T14:22:31;38.23;;;32.63;;
46589;SDS011;32313;48.722;9.362;2024-03-06T14:24:57;38.40;;;34.10;;
46589;SDS011;32313;48.722;9.362;2024-03-06T14:27:23;40.13;;;33.83;;
46589;SDS011;32313;48.722;9.362;2024-03-06T14:29:48;44.73;;;35.77;;
46589;SDS011;32313;48.722;9.362;2024-03-06T14:32:16;41.63;;;36.07;;
46589;SDS011;32313;48.722;9.362;2024-03-06T14:34:46;42.90;;;35.20;;
46589;SDS011;32313;48.722;9.362;2024-03-06T14:37:12;42.03;;;33.97;;